Time;durP1;ratioP1;P1;durP2;ratioP2;P2;SDS_P1;SDS_P2;PMS_P1;PMS_P2;Temp;Humidity;BMP_temperature;BMP_pressure;BME280_temperature;BME280_humidity;BME280_pressure;Samples;Min_cycle;Max_cycle;Signal;HPM_P1;HPM_P2
2023/04/14 00:00:41;;;;;;;13.02;3.88;;;;;;;;;;5016531;28;20048;-74
2023/04/14 00:03:07;;;;;;;10.07;2.97;;;;;;;;;;5031569;28;20041;-73
2023/04/14 00:05:34;;;;;;;13.48;3.40;;;;;;;;;;5016932;28;20045;-75
2023/04/14 00:08:00;;;;;;;9.25;3.33;;;;;;;;;;5024858;28;20090;-73
2023/04/14 00:10:27;;;;;;;11.10;3.35;;;;;;;;;;5031366;28;20119;-72
2023/04/14 00:12:54;;;;;;;14.63;3.45;;;;;;;;;;5034543;28;20041;-74
2023/04/14 00:15:20;;;;;;;12.50;3.67;;;;;;;;;;5025811;28;20057;-73
2023/04/14 00:17:46;;;;;;;10.70;2.97;;;;;;;;;;5037305;28;20061;-73
2023/04/14 00:20:12;;;;;;;9.27;3.22;;;;;;;;;;5020375;28;20057;-73
2023/04/14 00:22:38;;;;;;;10.02;2.80;;;;;;;;;;5031996;28;21223;-74
2023/04/14 00:25:05;;;;;;;10.52;3.17;;;;;;;;;;5019925;28;20060;-73
2023/04/14 00:27:31;;;;;;;12.50;3.58;;;;;;;;;;5020732;28;20055;-74
2023/04/14 00:29:57;;;;;;;11.85;3.53;;;;;;;;;;5035634;28;20716;-73
2023/04/14 00:32:23;;;;;;;10.80;3.38;;;;;;;;;;5030730;28;20045;-74
2023/04/14 00:34:49;;;;;;;11.77;3.25;;;;;;;;;;5036066;28;20040;-72
2023/04/14 00:37:15;;;;;;;12.52;3.50;;;;;;;;;;5015093;28;20110;-73
2023/04/14 00:39:41;;;;;;;9.65;3.25;;;;;;;;;;5037293;28;20044;-72
2023/04/14 00:42:07;;;;;;;12.27;3.30;;;;;;;;;;5035805;28;20057;-73
2023/04/14 00:44:34;;;;;;;14.23;3.55;;;;;;;;;;5034105;28;20132;-73
2023/04/14 00:47:00;;;;;;;9.40;3.45;;;;;;;;;;5020967;28;20643;-73
2023/04/14 00:49:26;;;;;;;13.27;3.40;;;;;;;;;;5021833;28;20519;-73
2023/04/14 00:51:53;;;;;;;12.73;3.15;;;;;;;;;;5034196;28;21053;-74
2023/04/14 00:54:19;;;;;;;13.70;3.00;;;;;;;;;;5032261;28;20041;-73
2023/04/14 00:56:53;;;;;;;10.07;3.35;;;;;;;;;;5038501;28;21038;-74
2023/04/14 00:59:19;;;;;;;11.68;3.33;;;;;;;;;;5021102;28;20049;-72
2023/04/14 01:01:46;;;;;;;11.88;3.60;;;;;;;;;;5033043;28;20098;-73
2023/04/14 01:04:12;;;;;;;7.25;2.92;;;;;;;;;;5032888;28;20052;-73
2023/04/14 01:06:38;;;;;;;6.07;2.97;;;;;;;;;;5013468;28;20048;-74
2023/04/14 01:09:05;;;;;;;12.82;3.45;;;;;;;;;;5035336;28;20048;-74
2023/04/14 01:11:31;;;;;;;10.35;3.45;;;;;;;;;;5016960;28;20053;-73
2023/04/14 01:14:15;;;;;;;10.70;4.22;;;;;;;;;;5019403;28;20048;-73
2023/04/14 01:16:44;;;;;;;11.00;3.78;;;;;;;;;;5024005;28;20136;-72
2023/04/14 01:19:20;;;;;;;14.63;3.97;;;;;;;;;;5030247;28;20095;-73
2023/04/14 01:21:48;;;;;;;8.45;3.55;;;;;;;;;;5017454;28;20102;-74
2023/04/14 01:24:25;;;;;;;8.80;3.40;;;;;;;;;;5038577;28;20132;-73
2023/04/14 01:27:27;;;;;;;11.20;3.47;;;;;;;;;;5039231;28;20444;-73
2023/04/14 01:30:08;;;;;;;11.13;3.38;;;;;;;;;;4997945;28;20050;-74
2023/04/14 01:32:35;;;;;;;7.50;3.30;;;;;;;;;;5011961;28;20045;-73
2023/04/14 01:35:05;;;;;;;12.32;3.50;;;;;;;;;;5019209;28;20477;-74
2023/04/14 01:37:33;;;;;;;9.43;3.28;;;;;;;;;;5030938;28;20167;-72
2023/04/14 01:40:10;;;;;;;7.03;2.95;;;;;;;;;;5027273;28;20045;-74
2023/04/14 01:42:37;;;;;;;8.55;3.20;;;;;;;;;;5016140;28;20049;-74
2023/04/14 01:45:06;;;;;;;10.82;2.90;;;;;;;;;;5038406;28;20607;-74
2023/04/14 01:47:32;;;;;;;12.18;3.67;;;;;;;;;;5018950;28;21049;-74
2023/04/14 01:50:00;;;;;;;9.50;2.92;;;;;;;;;;5019597;28;20055;-73
2023/04/14 01:52:26;;;;;;;8.35;3.30;;;;;;;;;;5031863;28;20497;-74
2023/04/14 01:54:53;;;;;;;6.25;3.05;;;;;;;;;;5038020;28;20048;-74
2023/04/14 01:57:21;;;;;;;7.93;3.10;;;;;;;;;;5019788;28;20048;-74
2023/04/14 01:59:49;;;;;;;9.15;3.55;;;;;;;;;;5027146;28;20049;-73
2023/04/14 02:02:17;;;;;;;9.32;3.17;;;;;;;;;;5014317;28;20056;-74
2023/04/14 02:04:44;;;;;;;9.25;3.38;;;;;;;;;;5016543;28;20065;-73
2023/04/14 02:07:11;;;;;;;10.90;3.38;;;;;;;;;;5029648;28;20076;-75
2023/04/14 02:09:38;;;;;;;10.95;3.45;;;;;;;;;;5011644;28;20080;-75
2023/04/14 02:12:05;;;;;;;12.05;3.70;;;;;;;;;;5014631;28;20183;-74
2023/04/14 02:14:32;;;;;;;8.32;3.65;;;;;;;;;;5020181;28;20578;-72
2023/04/14 02:16:59;;;;;;;8.07;3.53;;;;;;;;;;5028275;28;20037;-74
2023/04/14 02:19:26;;;;;;;15.30;3.63;;;;;;;;;;5018330;28;20207;-74
2023/04/14 02:21:53;;;;;;;8.40;3.17;;;;;;;;;;5020073;28;20084;-74
2023/04/14 02:24:20;;;;;;;11.00;3.60;;;;;;;;;;5033189;28;20085;-74
2023/04/14 02:26:58;;;;;;;11.75;3.75;;;;;;;;;;5031879;28;20115;-74
2023/04/14 02:29:24;;;;;;;10.75;3.53;;;;;;;;;;5012012;28;20333;-74
2023/04/14 02:32:03;;;;;;;10.13;3.38;;;;;;;;;;5031973;28;20982;-74
2023/04/14 02:34:31;;;;;;;14.32;3.20;;;;;;;;;;5019570;28;20193;-73
2023/04/14 02:36:59;;;;;;;7.32;3.22;;;;;;;;;;5018749;28;20135;-74
2023/04/14 02:39:40;;;;;;;9.97;3.13;;;;;;;;;;5024461;28;20041;-74
2023/04/14 02:42:12;;;;;;;8.93;2.80;;;;;;;;;;5030476;28;20322;-73
2023/04/14 02:44:41;;;;;;;7.80;3.15;;;;;;;;;;5033407;28;20110;-73
2023/04/14 02:47:09;;;;;;;9.55;3.28;;;;;;;;;;5019448;28;20114;-74
2023/04/14 02:49:44;;;;;;;11.57;3.30;;;;;;;;;;5030806;28;20056;-74
2023/04/14 02:52:10;;;;;;;8.55;2.70;;;;;;;;;;5016161;28;20050;-74
2023/04/14 02:54:37;;;;;;;8.85;2.80;;;;;;;;;;5038185;28;20136;-75
2023/04/14 02:57:03;;;;;;;7.78;2.75;;;;;;;;;;5018803;28;20067;-75
2023/04/14 02:59:31;;;;;;;12.50;3.28;;;;;;;;;;5020152;28;20684;-74
2023/04/14 03:02:03;;;;;;;9.30;3.65;;;;;;;;;;5030108;28;20060;-75
2023/04/14 03:04:31;;;;;;;8.90;3.65;;;;;;;;;;5032345;28;20068;-73
2023/04/14 03:06:58;;;;;;;11.93;4.00;;;;;;;;;;5021119;28;20049;-74
2023/04/14 03:09:24;;;;;;;10.85;4.70;;;;;;;;;;5015731;28;20500;-74
2023/04/14 03:11:50;;;;;;;11.45;4.20;;;;;;;;;;5018398;28;20068;-74
2023/04/14 03:14:18;;;;;;;13.32;4.22;;;;;;;;;;5020742;28;20071;-75
2023/04/14 03:16:45;;;;;;;8.85;4.07;;;;;;;;;;5021933;28;20079;-72
2023/04/14 03:19:11;;;;;;;7.13;3.92;;;;;;;;;;5015242;28;20049;-74
2023/04/14 03:21:38;;;;;;;9.90;4.00;;;;;;;;;;5015795;28;20049;-75
2023/04/14 03:24:05;;;;;;;8.98;3.75;;;;;;;;;;5015772;28;20045;-74
2023/04/14 03:26:32;;;;;;;12.13;3.88;;;;;;;;;;5018507;28;20056;-74
2023/04/14 03:29:00;;;;;;;10.93;4.25;;;;;;;;;;5040614;28;20522;-74
2023/04/14 03:31:29;;;;;;;8.85;4.38;;;;;;;;;;5022737;28;20040;-75
2023/04/14 03:33:56;;;;;;;14.05;4.32;;;;;;;;;;5017792;28;20098;-75
2023/04/14 03:36:24;;;;;;;12.48;4.10;;;;;;;;;;5021876;28;20586;-74
2023/04/14 03:38:54;;;;;;;9.80;4.47;;;;;;;;;;5034511;28;20049;-74
2023/04/14 03:41:20;;;;;;;7.95;4.10;;;;;;;;;;5040715;28;20053;-73
2023/04/14 03:43:47;;;;;;;12.82;3.95;;;;;;;;;;5023039;28;20140;-75
2023/04/14 03:46:13;;;;;;;10.38;4.20;;;;;;;;;;5034841;28;20134;-74
2023/04/14 03:48:41;;;;;;;12.02;4.18;;;;;;;;;;5036460;28;20041;-75
2023/04/14 03:51:09;;;;;;;11.00;4.20;;;;;;;;;;5019711;28;20040;-74
2023/04/14 03:53:36;;;;;;;9.05;4.50;;;;;;;;;;5033591;28;20052;-75
2023/04/14 03:56:03;;;;;;;10.75;4.38;;;;;;;;;;5034643;28;20073;-74
2023/04/14 03:58:30;;;;;;;12.27;4.47;;;;;;;;;;5022984;28;20812;-74
2023/04/14 04:00:56;;;;;;;10.30;4.22;;;;;;;;;;5005058;28;20071;-74
2023/04/14 04:03:23;;;;;;;8.82;4.55;;;;;;;;;;5035743;28;20099;-75
2023/04/14 04:05:49;;;;;;;10.65;4.57;;;;;;;;;;5032426;28;20082;-74
2023/04/14 04:08:17;;;;;;;13.18;5.07;;;;;;;;;;5033727;28;20053;-74
2023/04/14 04:10:44;;;;;;;10.00;4.38;;;;;;;;;;5031564;28;20041;-73
2023/04/14 04:13:12;;;;;;;11.43;4.40;;;;;;;;;;5031847;28;20081;-73
2023/04/14 04:15:38;;;;;;;10.63;4.70;;;;;;;;;;5033117;28;20590;-74
2023/04/14 04:18:06;;;;;;;8.30;3.92;;;;;;;;;;5018837;28;20606;-74
2023/04/14 04:20:34;;;;;;;11.18;4.85;;;;;;;;;;5015545;28;20057;-74
2023/04/14 04:23:01;;;;;;;14.20;4.63;;;;;;;;;;5012764;28;20044;-74
2023/04/14 04:25:26;;;;;;;10.40;4.30;;;;;;;;;;5014530;28;20049;-75
2023/04/14 04:27:53;;;;;;;9.27;4.20;;;;;;;;;;5015713;28;20060;-74
2023/04/14 04:30:19;;;;;;;11.50;5.43;;;;;;;;;;5012957;28;20562;-74
2023/04/14 04:32:46;;;;;;;14.25;4.63;;;;;;;;;;5014134;28;20072;-75
2023/04/14 04:35:12;;;;;;;12.05;4.60;;;;;;;;;;5014090;28;20058;-74
2023/04/14 04:37:38;;;;;;;9.13;3.97;;;;;;;;;;5015216;28;20516;-74
2023/04/14 04:40:06;;;;;;;9.37;4.17;;;;;;;;;;5013646;28;20045;-74
2023/04/14 04:42:32;;;;;;;9.40;4.17;;;;;;;;;;5014848;28;20079;-73
2023/04/14 04:44:58;;;;;;;9.63;4.50;;;;;;;;;;5014401;28;20049;-74
2023/04/14 04:47:24;;;;;;;12.50;3.77;;;;;;;;;;5015839;28;20576;-74
2023/04/14 04:49:50;;;;;;;11.63;4.00;;;;;;;;;;5007486;28;20056;-75
2023/04/14 04:52:16;;;;;;;12.90;4.73;;;;;;;;;;5027956;28;20086;-75
2023/04/14 04:54:42;;;;;;;9.73;4.60;;;;;;;;;;5026781;28;20061;-75
2023/04/14 04:57:08;;;;;;;10.40;4.93;;;;;;;;;;5012542;28;20132;-73
2023/04/14 04:59:35;;;;;;;11.10;5.57;;;;;;;;;;5012824;28;20060;-74
2023/04/14 05:02:01;;;;;;;12.67;5.90;;;;;;;;;;5011373;28;20045;-74
2023/04/14 05:04:26;;;;;;;11.60;5.27;;;;;;;;;;5011879;28;20037;-74
2023/04/14 05:06:52;;;;;;;12.73;5.60;;;;;;;;;;5011729;28;20055;-73
2023/04/14 05:09:19;;;;;;;15.57;4.90;;;;;;;;;;5011946;28;20076;-73
2023/04/14 05:11:45;;;;;;;17.20;5.78;;;;;;;;;;5028166;28;20164;-74
2023/04/14 05:14:11;;;;;;;14.23;5.85;;;;;;;;;;5006677;28;20049;-75
2023/04/14 05:16:43;;;;;;;14.47;5.63;;;;;;;;;;5027472;28;20053;-73
2023/04/14 05:19:09;;;;;;;10.33;5.60;;;;;;;;;;5009855;28;20182;-73
2023/04/14 05:21:35;;;;;;;12.93;5.43;;;;;;;;;;5011111;28;20230;-75
2023/04/14 05:24:01;;;;;;;13.55;5.75;;;;;;;;;;5012216;28;20048;-73
2023/04/14 05:26:27;;;;;;;13.03;5.67;;;;;;;;;;5009761;28;20751;-73
2023/04/14 05:28:53;;;;;;;10.00;5.17;;;;;;;;;;5015375;28;20095;-74
2023/04/14 05:31:19;;;;;;;12.63;5.77;;;;;;;;;;5009127;28;20524;-74
2023/04/14 05:33:45;;;;;;;10.77;5.63;;;;;;;;;;5026096;28;20129;-75
2023/04/14 05:36:11;;;;;;;11.87;6.10;;;;;;;;;;5012185;28;20053;-75
2023/04/14 05:38:40;;;;;;;16.27;6.17;;;;;;;;;;5011530;28;20038;-74
2023/04/14 05:41:06;;;;;;;12.25;5.70;;;;;;;;;;5010064;28;20053;-73
2023/04/14 05:43:32;;;;;;;12.75;6.32;;;;;;;;;;5010127;28;20127;-73
2023/04/14 05:46:00;;;;;;;14.17;6.00;;;;;;;;;;5014743;28;20128;-73
2023/04/14 05:48:29;;;;;;;12.57;5.93;;;;;;;;;;5010860;28;20049;-74
2023/04/14 05:50:55;;;;;;;;;;;;;;;;;;5012885;28;20056;-74
2023/04/14 05:53:21;;;;;;;12.60;5.80;;;;;;;;;;4996823;28;19921;-74
2023/04/14 05:55:47;;;;;;;18.33;6.30;;;;;;;;;;5011086;28;20118;-75
2023/04/14 05:58:13;;;;;;;15.13;6.60;;;;;;;;;;5010695;28;20493;-73
2023/04/14 06:00:39;;;;;;;12.33;6.03;;;;;;;;;;5007274;28;20045;-74
2023/04/14 06:03:06;;;;;;;12.15;6.22;;;;;;;;;;5012041;28;20118;-74
2023/04/14 06:05:32;;;;;;;11.77;6.20;;;;;;;;;;5011868;28;20034;-74
2023/04/14 06:07:58;;;;;;;13.90;6.17;;;;;;;;;;5012843;28;20049;-74
2023/04/14 06:10:24;;;;;;;12.47;5.70;;;;;;;;;;5023637;28;20139;-73
2023/04/14 06:12:50;;;;;;;11.43;6.07;;;;;;;;;;5008781;28;20038;-74
2023/04/14 06:15:16;;;;;;;10.70;5.78;;;;;;;;;;5026248;28;20053;-74
2023/04/14 06:17:46;;;;;;;13.90;5.78;;;;;;;;;;5009112;28;20073;-73
2023/04/14 06:20:12;;;;;;;14.50;6.13;;;;;;;;;;5018047;28;20057;-73
2023/04/14 06:22:39;;;;;;;14.00;6.00;;;;;;;;;;5020505;28;20045;-73
2023/04/14 06:25:05;;;;;;;14.05;6.00;;;;;;;;;;5020076;28;20128;-73
2023/04/14 06:27:31;;;;;;;16.40;5.22;;;;;;;;;;5016389;28;20106;-74
2023/04/14 06:29:58;;;;;;;10.23;4.78;;;;;;;;;;5036407;28;20045;-72
2023/04/14 06:32:25;;;;;;;15.68;5.55;;;;;;;;;;5044425;28;20232;-73
2023/04/14 06:34:51;;;;;;;12.25;5.25;;;;;;;;;;5039358;28;20131;-72
2023/04/14 06:37:17;;;;;;;18.23;5.80;;;;;;;;;;5023339;28;20832;-72
2023/04/14 06:39:43;;;;;;;12.93;5.32;;;;;;;;;;5017196;28;20041;-75
2023/04/14 06:42:12;;;;;;;7.60;4.82;;;;;;;;;;5015207;28;20059;-72
2023/04/14 06:44:38;;;;;;;13.32;6.07;;;;;;;;;;5018038;28;20491;-73
2023/04/14 06:47:05;;;;;;;12.45;5.78;;;;;;;;;;4997424;28;20072;-71
2023/04/14 06:49:31;;;;;;;12.02;5.28;;;;;;;;;;5017114;28;20041;-73
2023/04/14 06:51:57;;;;;;;12.55;5.70;;;;;;;;;;5030729;28;20044;-74
2023/04/14 06:54:23;;;;;;;13.18;5.30;;;;;;;;;;5013421;28;20068;-73
2023/04/14 06:56:49;;;;;;;11.63;5.20;;;;;;;;;;5031813;28;20157;-73
2023/04/14 06:59:15;;;;;;;11.25;4.40;;;;;;;;;;5034121;28;20049;-73
2023/04/14 07:01:41;;;;;;;11.68;4.80;;;;;;;;;;5030826;28;20037;-73
2023/04/14 07:04:07;;;;;;;13.73;5.05;;;;;;;;;;5033120;28;20044;-74
2023/04/14 07:06:34;;;;;;;13.95;5.03;;;;;;;;;;5029141;28;20044;-75
2023/04/14 07:09:00;;;;;;;10.57;4.53;;;;;;;;;;5015878;28;20049;-75
2023/04/14 07:11:26;;;;;;;12.15;4.65;;;;;;;;;;5028762;28;20048;-76
2023/04/14 07:13:52;;;;;;;15.10;5.07;;;;;;;;;;5029984;28;20563;-75
2023/04/14 07:16:18;;;;;;;15.15;4.32;;;;;;;;;;5014375;28;20088;-75
2023/04/14 07:18:44;;;;;;;9.57;4.10;;;;;;;;;;5019680;28;20470;-76
2023/04/14 07:21:10;;;;;;;10.57;4.10;;;;;;;;;;5014039;28;21899;-75
2023/04/14 07:23:36;;;;;;;15.48;4.38;;;;;;;;;;5016586;28;20056;-76
2023/04/14 07:26:02;;;;;;;11.80;3.78;;;;;;;;;;5031217;28;20032;-76
2023/04/14 07:28:28;;;;;;;11.60;3.85;;;;;;;;;;5018468;28;20087;-74
2023/04/14 07:30:55;;;;;;;14.88;3.50;;;;;;;;;;5013356;28;20075;-75
2023/04/14 07:33:22;;;;;;;9.75;3.33;;;;;;;;;;5015273;28;20060;-75
2023/04/14 07:35:52;;;;;;;13.02;3.80;;;;;;;;;;5030296;28;20040;-74
2023/04/14 07:38:18;;;;;;;11.25;2.90;;;;;;;;;;5013518;28;20165;-75
2023/04/14 07:40:45;;;;;;;10.20;3.13;;;;;;;;;;5028947;28;20412;-73
2023/04/14 07:43:12;;;;;;;13.38;2.95;;;;;;;;;;5013325;28;20064;-74
2023/04/14 07:45:38;;;;;;;10.85;2.90;;;;;;;;;;5012070;28;20114;-75
2023/04/14 07:48:04;;;;;;;13.50;3.40;;;;;;;;;;5016591;28;20079;-75
2023/04/14 07:50:30;;;;;;;11.75;2.50;;;;;;;;;;5028000;28;20123;-74
2023/04/14 07:52:58;;;;;;;9.40;2.50;;;;;;;;;;5007021;28;20110;-73
2023/04/14 07:55:24;;;;;;;13.20;3.00;;;;;;;;;;5018125;28;20060;-74
2023/04/14 07:57:50;;;;;;;11.30;2.58;;;;;;;;;;5014274;28;20303;-74
2023/04/14 08:00:16;;;;;;;7.97;2.83;;;;;;;;;;5015257;28;20150;-75
2023/04/14 08:02:43;;;;;;;13.60;2.53;;;;;;;;;;5011696;28;20584;-75
2023/04/14 08:05:09;;;;;;;13.45;3.08;;;;;;;;;;5032729;28;20449;-75
2023/04/14 08:07:35;;;;;;;15.27;2.65;;;;;;;;;;5034694;28;20187;-73
2023/04/14 08:10:02;;;;;;;10.27;2.72;;;;;;;;;;5011759;28;20040;-75
2023/04/14 08:12:28;;;;;;;8.70;2.50;;;;;;;;;;5014503;28;20488;-73
2023/04/14 08:14:55;;;;;;;14.32;2.50;;;;;;;;;;5010661;28;20075;-75
2023/04/14 08:17:22;;;;;;;12.93;2.72;;;;;;;;;;5017208;28;20049;-75
2023/04/14 08:19:48;;;;;;;16.30;2.67;;;;;;;;;;5013274;28;20049;-75
2023/04/14 08:22:14;;;;;;;12.07;2.80;;;;;;;;;;5032325;28;20136;-74
2023/04/14 08:24:40;;;;;;;11.73;3.05;;;;;;;;;;5032700;28;20056;-74
2023/04/14 08:27:06;;;;;;;12.60;2.60;;;;;;;;;;5016535;28;20045;-73
2023/04/14 08:29:32;;;;;;;13.85;2.55;;;;;;;;;;5034489;28;20492;-73
2023/04/14 08:31:58;;;;;;;12.68;2.47;;;;;;;;;;5012370;28;20065;-74
2023/04/14 08:34:24;;;;;;;7.45;2.80;;;;;;;;;;5020015;28;20128;-74
2023/04/14 08:36:50;;;;;;;11.13;2.80;;;;;;;;;;5025208;28;20049;-73
2023/04/14 08:39:16;;;;;;;12.93;2.40;;;;;;;;;;5018362;28;20484;-74
2023/04/14 08:41:42;;;;;;;10.27;2.53;;;;;;;;;;5026823;28;20063;-73
2023/04/14 08:44:09;;;;;;;12.35;2.92;;;;;;;;;;5021984;28;20059;-73
2023/04/14 08:46:35;;;;;;;13.43;2.30;;;;;;;;;;5020413;28;20103;-74
2023/04/14 08:49:13;;;;;;;12.15;2.35;;;;;;;;;;5033440;28;20041;-73
2023/04/14 08:51:42;;;;;;;12.05;2.20;;;;;;;;;;5018690;28;20496;-74
2023/04/14 08:54:09;;;;;;;12.40;2.17;;;;;;;;;;5021177;28;20580;-74
2023/04/14 08:56:39;;;;;;;15.40;2.38;;;;;;;;;;5018604;28;20072;-73
2023/04/14 08:59:10;;;;;;;12.50;2.75;;;;;;;;;;5035710;28;20056;-75
2023/04/14 09:01:36;;;;;;;14.40;2.20;;;;;;;;;;5025755;28;20420;-74
2023/04/14 09:04:03;;;;;;;15.57;2.40;;;;;;;;;;5042231;28;20057;-74
2023/04/14 09:06:29;;;;;;;12.98;2.72;;;;;;;;;;5022776;28;20573;-74
2023/04/14 09:08:55;;;;;;;14.38;2.33;;;;;;;;;;5018480;28;21138;-75
2023/04/14 09:11:22;;;;;;;9.23;2.15;;;;;;;;;;5036262;28;20615;-73
2023/04/14 09:13:49;;;;;;;9.20;2.20;;;;;;;;;;5033842;28;20044;-73
2023/04/14 09:16:16;;;;;;;9.07;2.38;;;;;;;;;;5033464;28;20037;-75
2023/04/14 09:18:42;;;;;;;12.10;2.70;;;;;;;;;;5022548;28;20049;-72
2023/04/14 09:21:09;;;;;;;14.13;2.55;;;;;;;;;;5032596;28;20064;-74
2023/04/14 09:23:36;;;;;;;10.18;2.20;;;;;;;;;;5023780;28;20037;-73
2023/04/14 09:26:07;;;;;;;14.63;2.38;;;;;;;;;;5016592;28;20053;-73
2023/04/14 09:28:34;;;;;;;9.32;2.55;;;;;;;;;;5014837;28;20045;-73
2023/04/14 09:31:01;;;;;;;15.05;2.30;;;;;;;;;;5037477;28;20057;-72
2023/04/14 09:33:27;;;;;;;11.65;2.80;;;;;;;;;;5035806;28;20861;-74
2023/04/14 09:35:54;;;;;;;12.75;2.30;;;;;;;;;;5038047;28;20051;-74
2023/04/14 09:38:36;;;;;;;11.52;2.50;;;;;;;;;;5034951;28;20065;-73
2023/04/14 09:41:05;;;;;;;13.23;2.67;;;;;;;;;;5018201;28;20071;-74
2023/04/14 09:43:31;;;;;;;14.27;2.50;;;;;;;;;;5030763;28;20068;-74
2023/04/14 09:45:58;;;;;;;10.15;2.20;;;;;;;;;;5020612;28;20043;-74
2023/04/14 09:48:24;;;;;;;11.13;2.40;;;;;;;;;;5033483;28;20132;-74
2023/04/14 09:51:00;;;;;;;7.30;2.05;;;;;;;;;;5035550;28;20056;-74
2023/04/14 09:53:27;;;;;;;9.48;1.92;;;;;;;;;;5018923;28;20440;-75
2023/04/14 09:55:53;;;;;;;9.27;2.30;;;;;;;;;;4999109;28;20555;-74
2023/04/14 09:58:21;;;;;;;10.10;2.33;;;;;;;;;;5022570;28;20069;-74
2023/04/14 10:00:47;;;;;;;13.35;2.50;;;;;;;;;;5024903;28;20057;-75
2023/04/14 10:03:13;;;;;;;11.95;2.97;;;;;;;;;;5031887;28;20076;-73
2023/04/14 10:05:45;;;;;;;13.05;2.63;;;;;;;;;;5021948;28;20119;-73
2023/04/14 10:08:11;;;;;;;7.03;2.08;;;;;;;;;;5016047;28;20041;-73
2023/04/14 10:10:37;;;;;;;7.72;3.00;;;;;;;;;;4996953;28;20052;-73
2023/04/14 10:13:03;;;;;;;14.50;2.65;;;;;;;;;;5037871;28;20041;-74
2023/04/14 10:15:29;;;;;;;10.68;2.35;;;;;;;;;;5000872;28;20136;-73
2023/04/14 10:17:55;;;;;;;8.95;2.75;;;;;;;;;;5032995;28;20036;-73
2023/04/14 10:20:21;;;;;;;7.05;2.50;;;;;;;;;;5034621;28;20068;-74
2023/04/14 10:22:47;;;;;;;12.63;2.95;;;;;;;;;;5047463;28;20086;-73
2023/04/14 10:25:14;;;;;;;10.40;3.20;;;;;;;;;;5019630;28;20045;-74
2023/04/14 10:27:40;;;;;;;14.25;2.83;;;;;;;;;;5020787;28;20049;-73
2023/04/14 10:30:07;;;;;;;10.77;3.30;;;;;;;;;;5042194;28;20040;-73
2023/04/14 10:32:35;;;;;;;9.07;2.70;;;;;;;;;;5037557;28;20140;-73
2023/04/14 10:35:05;;;;;;;9.75;3.03;;;;;;;;;;5007531;28;21249;-74
2023/04/14 10:37:34;;;;;;;11.10;3.13;;;;;;;;;;5031168;28;20930;-74
2023/04/14 10:40:03;;;;;;;9.38;2.72;;;;;;;;;;5015217;28;20132;-74
2023/04/14 10:42:31;;;;;;;7.97;3.13;;;;;;;;;;5022926;28;20509;-74
2023/04/14 10:45:04;;;;;;;14.93;3.00;;;;;;;;;;5035175;28;20825;-73
2023/04/14 10:47:31;;;;;;;11.98;2.40;;;;;;;;;;5028586;28;20448;-73
2023/04/14 10:49:57;;;;;;;11.55;2.55;;;;;;;;;;5024889;28;20647;-74
2023/04/14 10:52:24;;;;;;;11.20;2.85;;;;;;;;;;5008767;28;20124;-74
2023/04/14 10:54:54;;;;;;;11.15;2.88;;;;;;;;;;5039007;28;20056;-74
2023/04/14 10:57:24;;;;;;;8.85;2.75;;;;;;;;;;5004697;28;20045;-75
2023/04/14 10:59:53;;;;;;;10.27;2.92;;;;;;;;;;5016907;28;20180;-80
2023/04/14 11:02:27;;;;;;;9.05;3.08;;;;;;;;;;5020431;28;20049;-80
2023/04/14 11:04:57;;;;;;;6.55;2.72;;;;;;;;;;5000188;28;20510;-79
2023/04/14 11:07:23;;;;;;;10.50;3.00;;;;;;;;;;5032231;28;20044;-79
2023/04/14 11:09:50;;;;;;;8.68;3.00;;;;;;;;;;5032785;28;20045;-79
2023/04/14 11:12:26;;;;;;;7.75;2.55;;;;;;;;;;5029621;28;20131;-79
2023/04/14 11:15:01;;;;;;;7.38;2.50;;;;;;;;;;4996646;28;20629;-79
2023/04/14 11:17:29;;;;;;;9.02;2.53;;;;;;;;;;5024526;28;20045;-74
2023/04/14 11:19:56;;;;;;;7.03;2.42;;;;;;;;;;5027339;28;20061;-74
2023/04/14 11:22:56;;;;;;;12.88;2.85;;;;;;;;;;5009476;28;20048;-74
2023/04/14 11:25:23;;;;;;;10.85;3.20;;;;;;;;;;4968863;28;20053;-74
2023/04/14 11:27:49;;;;;;;9.05;3.03;;;;;;;;;;5028384;28;20094;-74
2023/04/14 11:30:15;;;;;;;8.82;3.10;;;;;;;;;;5017755;28;20198;-74
2023/04/14 11:32:49;;;;;;;8.35;2.35;;;;;;;;;;5034039;28;20426;-74
2023/04/14 11:35:16;;;;;;;6.15;2.55;;;;;;;;;;5012938;28;20584;-74
2023/04/14 11:37:42;;;;;;;8.35;2.60;;;;;;;;;;5016584;28;20640;-74
2023/04/14 11:40:09;;;;;;;10.60;2.65;;;;;;;;;;5019214;28;20076;-74
2023/04/14 11:42:35;;;;;;;10.57;2.80;;;;;;;;;;5014016;28;20045;-74
2023/04/14 11:45:06;;;;;;;11.98;3.15;;;;;;;;;;5032048;28;20095;-74
2023/04/14 11:47:32;;;;;;;9.10;2.50;;;;;;;;;;5034994;28;20848;-74
2023/04/14 11:50:01;;;;;;;12.52;2.47;;;;;;;;;;5002233;28;20048;-73
2023/04/14 11:52:26;;;;;;;8.95;2.15;;;;;;;;;;5035158;28;20048;-74
2023/04/14 11:54:52;;;;;;;10.68;3.22;;;;;;;;;;5022465;28;20877;-75
2023/04/14 11:57:18;;;;;;;7.25;2.35;;;;;;;;;;5034079;28;20049;-75
2023/04/14 11:59:45;;;;;;;7.55;2.65;;;;;;;;;;5034542;28;20511;-74
2023/04/14 12:02:18;;;;;;;8.43;2.42;;;;;;;;;;5016977;28;20574;-74
2023/04/14 12:04:46;;;;;;;12.20;4.30;;;;;;;;;;5012949;28;20060;-75
2023/04/14 12:07:16;;;;;;;8.30;2.65;;;;;;;;;;5033723;28;20041;-75
2023/04/14 12:09:43;;;;;;;11.65;2.95;;;;;;;;;;5029644;28;20464;-74
2023/04/14 12:12:13;;;;;;;10.80;2.15;;;;;;;;;;5019280;28;20045;-74
2023/04/14 12:14:47;;;;;;;8.27;2.90;;;;;;;;;;5026959;28;20076;-74
2023/04/14 12:17:14;;;;;;;7.03;2.05;;;;;;;;;;5031045;28;20412;-75
2023/04/14 12:19:49;;;;;;;8.13;2.40;;;;;;;;;;5020015;28;20599;-74
2023/04/14 12:32:42;;;;;;;7.82;2.38;;;;;;;;;;5028034;28;20039;-79
2023/04/14 12:35:09;;;;;;;12.48;2.80;;;;;;;;;;5031895;28;20153;-78
2023/04/14 12:37:36;;;;;;;8.30;2.78;;;;;;;;;;5028807;28;20041;-79
2023/04/14 12:40:05;;;;;;;10.95;2.60;;;;;;;;;;5029717;28;20756;-78
2023/04/14 12:42:47;;;;;;;9.05;2.95;;;;;;;;;;5018853;28;20056;-79
2023/04/14 12:45:14;;;;;;;6.45;2.55;;;;;;;;;;5013019;28;20095;-78
2023/04/14 12:47:41;;;;;;;8.73;2.53;;;;;;;;;;5012548;28;20122;-78
2023/04/14 12:50:31;;;;;;;11.77;2.70;;;;;;;;;;5040005;28;20044;-78
2023/04/14 12:52:58;;;;;;;9.05;2.83;;;;;;;;;;4998318;28;20045;-78
2023/04/14 12:55:28;;;;;;;9.23;2.67;;;;;;;;;;5020373;28;20029;-78
2023/04/14 12:57:57;;;;;;;9.85;2.40;;;;;;;;;;5019163;28;20098;-78
2023/04/14 13:00:25;;;;;;;9.63;3.20;;;;;;;;;;5034143;28;20049;-78
2023/04/14 13:02:51;;;;;;;10.93;2.37;;;;;;;;;;5032121;28;20044;-78
2023/04/14 13:05:17;;;;;;;10.80;2.60;;;;;;;;;;5020546;28;20307;-78
2023/04/14 13:07:43;;;;;;;10.88;2.95;;;;;;;;;;5026062;28;20040;-82
2023/04/14 13:10:10;;;;;;;13.75;4.05;;;;;;;;;;5016070;28;20404;-74
2023/04/14 13:12:36;;;;;;;11.48;2.97;;;;;;;;;;5039379;28;20071;-74
2023/04/14 13:15:02;;;;;;;7.35;2.40;;;;;;;;;;5035140;28;20049;-74
2023/04/14 13:17:28;;;;;;;8.88;2.75;;;;;;;;;;5002732;28;20083;-73
2023/04/14 13:19:55;;;;;;;6.50;2.65;;;;;;;;;;5029927;28;20052;-74
2023/04/14 13:22:21;;;;;;;9.02;3.35;;;;;;;;;;5017642;28;20091;-74
2023/04/14 13:24:48;;;;;;;10.45;3.28;;;;;;;;;;5021199;28;20438;-74
2023/04/14 13:27:14;;;;;;;8.95;2.90;;;;;;;;;;5021332;28;20604;-75
2023/04/14 13:29:40;;;;;;;11.73;2.90;;;;;;;;;;5017280;28;20087;-74
2023/04/14 13:32:10;;;;;;;10.43;3.20;;;;;;;;;;5027620;28;20127;-76
2023/04/14 13:34:36;;;;;;;8.77;2.55;;;;;;;;;;5044719;28;20068;-75
2023/04/14 13:37:02;;;;;;;10.55;3.10;;;;;;;;;;5036724;28;20189;-74
2023/04/14 13:39:28;;;;;;;10.05;3.22;;;;;;;;;;5019167;28;20119;-75
2023/04/14 13:41:54;;;;;;;8.40;2.80;;;;;;;;;;5043629;28;20044;-75
2023/04/14 13:44:20;;;;;;;10.75;3.10;;;;;;;;;;5019763;28;20064;-74
2023/04/14 13:46:48;;;;;;;10.13;3.47;;;;;;;;;;5021757;28;20064;-75
2023/04/14 13:49:14;;;;;;;8.70;3.90;;;;;;;;;;5033839;28;20045;-74
2023/04/14 13:51:40;;;;;;;12.40;3.40;;;;;;;;;;4997969;28;20111;-74
2023/04/14 13:54:06;;;;;;;10.38;3.65;;;;;;;;;;5023394;28;20151;-74
2023/04/14 13:56:32;;;;;;;15.10;3.50;;;;;;;;;;5031990;28;20612;-74
2023/04/14 13:58:58;;;;;;;12.50;3.50;;;;;;;;;;5031028;28;20033;-74
2023/04/14 14:01:24;;;;;;;9.63;3.90;;;;;;;;;;5017277;28;20049;-74
2023/04/14 14:03:50;;;;;;;11.00;4.13;;;;;;;;;;5042945;28;20156;-74
2023/04/14 14:06:17;;;;;;;9.07;4.05;;;;;;;;;;5020261;28;20095;-75
2023/04/14 14:08:43;;;;;;;13.00;5.03;;;;;;;;;;5018525;28;20581;-74
2023/04/14 14:11:09;;;;;;;11.15;3.72;;;;;;;;;;5045608;28;20072;-75
2023/04/14 14:13:37;;;;;;;11.70;4.40;;;;;;;;;;5030262;28;20536;-75
2023/04/14 14:16:03;;;;;;;10.75;4.47;;;;;;;;;;5034038;28;20048;-75
2023/04/14 14:18:30;;;;;;;9.45;4.22;;;;;;;;;;5024645;28;20540;-74
2023/04/14 14:20:57;;;;;;;13.73;3.65;;;;;;;;;;5028082;28;20113;-75
2023/04/14 14:23:23;;;;;;;12.15;3.63;;;;;;;;;;5024773;28;20631;-74
2023/04/14 14:25:49;;;;;;;7.45;3.35;;;;;;;;;;5015933;28;21512;-74
2023/04/14 14:28:14;;;;;;;8.50;3.38;;;;;;;;;;5016216;28;20045;-74
2023/04/14 14:30:41;;;;;;;8.73;3.03;;;;;;;;;;5032922;28;20640;-75
2023/04/14 14:33:07;;;;;;;8.70;3.22;;;;;;;;;;5022251;28;20129;-75
2023/04/14 14:35:33;;;;;;;15.30;3.70;;;;;;;;;;5001905;28;20124;-75
2023/04/14 14:37:59;;;;;;;7.30;3.10;;;;;;;;;;5031214;28;20095;-75
2023/04/14 14:40:25;;;;;;;7.40;2.83;;;;;;;;;;5031698;28;20114;-74
2023/04/14 14:42:51;;;;;;;7.57;3.42;;;;;;;;;;5030499;28;20041;-75
2023/04/14 14:45:17;;;;;;;11.05;3.50;;;;;;;;;;5032179;28;20033;-75
2023/04/14 14:47:43;;;;;;;9.80;3.97;;;;;;;;;;5030021;28;20499;-75